Time;durP1;ratioP1;P1;durP2;ratioP2;P2;SDS_P1;SDS_P2;PMS_P1;PMS_P2;Temp;Humidity;BMP_temperature;BMP_pressure;BME280_temperature;BME280_humidity;BME280_pressure;Samples;Min_cycle;Max_cycle;Signal;HPM_P1;HPM_P2
2022/02/25 00:00:30;;;;;;;2.08;0.68;;;26.50;75.50;;;;;;5168704;22;20356;-62
2022/02/25 00:02:52;;;;;;;1.50;0.82;;;26.50;75.30;;;;;;5171522;22;20820;-63
2022/02/25 00:05:15;;;;;;;1.67;0.80;;;26.50;75.40;;;;;;5145834;22;20011;-62
2022/02/25 00:07:38;;;;;;;2.30;0.83;;;26.60;75.30;;;;;;5170053;22;20125;-64
2022/02/25 00:10:00;;;;;;;3.42;0.90;;;26.60;75.20;;;;;;5170178;22;20244;-62
2022/02/25 00:12:23;;;;;;;3.38;0.80;;;26.60;75.20;;;;;;5178540;22;20476;-61
2022/02/25 00:14:45;;;;;;;1.00;0.68;;;26.60;75.10;;;;;;5171284;22;20433;-64
2022/02/25 00:17:08;;;;;;;6.35;1.17;;;26.70;75.00;;;;;;5171726;22;20019;-62
2022/02/25 00:19:30;;;;;;;0.77;0.47;;;26.70;75.00;;;;;;5177992;22;20732;-61
2022/02/25 00:21:53;;;;;;;0.95;0.60;;;26.70;75.00;;;;;;5140534;22;20105;-61
2022/02/25 00:24:16;;;;;;;1.17;0.60;;;26.70;74.90;;;;;;5171783;22;20324;-62
2022/02/25 00:26:38;;;;;;;2.55;0.80;;;26.70;74.90;;;;;;5178200;22;20436;-63
2022/02/25 00:29:01;;;;;;;1.50;0.60;;;26.80;74.50;;;;;;5173651;22;20371;-62
2022/02/25 00:31:24;;;;;;;2.20;0.75;;;26.80;74.80;;;;;;5138508;22;20062;-63
2022/02/25 00:33:47;;;;;;;0.88;0.45;;;26.80;74.70;;;;;;5176147;22;20011;-61
2022/02/25 00:36:09;;;;;;;1.65;0.55;;;26.80;74.70;;;;;;5173629;22;20019;-61
2022/02/25 00:38:31;;;;;;;1.27;0.75;;;26.80;74.70;;;;;;5171613;22;20011;-64
2022/02/25 00:40:54;;;;;;;1.52;0.80;;;26.80;74.50;;;;;;5173317;22;20019;-61
2022/02/25 00:43:16;;;;;;;2.65;0.77;;;26.90;74.30;;;;;;5177870;22;20454;-63
2022/02/25 00:45:39;;;;;;;1.13;0.70;;;26.90;74.40;;;;;;5171692;22;20116;-63
2022/02/25 00:48:02;;;;;;;2.55;0.90;;;26.90;74.40;;;;;;5170537;22;20065;-63
2022/02/25 00:50:24;;;;;;;1.98;0.70;;;26.90;74.40;;;;;;5178292;22;20015;-64
2022/02/25 00:52:47;;;;;;;1.02;0.40;;;27.00;74.40;;;;;;5169830;22;20019;-63
2022/02/25 00:55:09;;;;;;;1.02;0.55;;;26.90;74.30;;;;;;5169807;22;20011;-61
2022/02/25 00:57:32;;;;;;;1.30;0.60;;;27.00;74.30;;;;;;5175736;22;20117;-63
2022/02/25 00:59:54;;;;;;;1.30;0.40;;;27.00;74.20;;;;;;5172990;22;20015;-64
2022/02/25 01:02:17;;;;;;;0.40;0.40;;;27.00;74.20;;;;;;5162413;22;20023;-63
2022/02/25 01:04:40;;;;;;;0.77;0.47;;;27.00;74.10;;;;;;5168836;22;20618;-62
2022/02/25 01:07:02;;;;;;;1.05;0.60;;;27.00;74.10;;;;;;5141403;22;20039;-61
2022/02/25 01:09:25;;;;;;;2.28;0.55;;;27.10;74.10;;;;;;5174034;22;20766;-61
2022/02/25 01:11:48;;;;;;;0.60;0.50;;;27.10;73.90;;;;;;5149400;22;20026;-61
2022/02/25 01:14:11;;;;;;;2.88;0.80;;;27.10;73.80;;;;;;5176204;22;20023;-62
2022/02/25 01:16:33;;;;;;;1.48;0.57;;;27.10;73.70;;;;;;5174824;22;20023;-63
2022/02/25 01:18:56;;;;;;;1.27;0.45;;;27.10;73.60;;;;;;5173289;22;20558;-61
2022/02/25 01:21:18;;;;;;;1.02;0.50;;;27.00;73.50;;;;;;5173097;22;20108;-61
2022/02/25 01:23:41;;;;;;;1.30;0.57;;;27.00;73.50;;;;;;5170839;22;20023;-61
2022/02/25 01:26:03;;;;;;;1.15;0.47;;;27.00;73.40;;;;;;5174960;22;20011;-60
2022/02/25 01:28:26;;;;;;;2.05;0.60;;;27.00;73.30;;;;;;5179067;22;20135;-61
2022/02/25 01:30:48;;;;;;;1.42;0.50;;;27.00;73.30;;;;;;5174649;22;20499;-62
2022/02/25 01:33:11;;;;;;;0.30;0.30;;;27.00;73.20;;;;;;5176573;22;20099;-61
2022/02/25 01:35:35;;;;;;;0.82;0.50;;;27.00;72.70;;;;;;5183051;22;20230;-61
2022/02/25 01:37:57;;;;;;;0.50;0.28;;;27.00;73.20;;;;;;5173966;22;20015;-61
2022/02/25 01:40:22;;;;;;;0.63;0.30;;;27.00;73.20;;;;;;5176650;22;20828;-61
2022/02/25 01:42:49;;;;;;;1.00;0.32;;;27.00;73.20;;;;;;5181328;22;20558;-61
2022/02/25 01:45:11;;;;;;;0.75;0.40;;;27.00;73.40;;;;;;5176868;22;20731;-61
2022/02/25 01:47:34;;;;;;;0.40;0.40;;;27.00;73.10;;;;;;5178651;22;20156;-61
2022/02/25 01:49:56;;;;;;;0.43;0.40;;;27.00;73.00;;;;;;5180457;22;20459;-61
2022/02/25 01:52:20;;;;;;;0.90;0.40;;;27.00;73.00;;;;;;5177791;22;20038;-62
2022/02/25 01:54:46;;;;;;;;;;;27.00;73.00;;;;;;5186244;22;20011;-61
2022/02/25 01:57:11;;;;;;;1.00;0.50;;;26.90;72.90;;;;;;5184601;22;20029;-62
2022/02/25 01:59:33;;;;;;;5.30;2.20;;;27.00;73.10;;;;;;5186690;22;20030;-62
2022/02/25 02:01:57;;;;;;;4.40;2.08;;;26.90;72.60;;;;;;5190191;22;20432;-61
2022/02/25 02:04:19;;;;;;;4.32;2.35;;;26.90;72.70;;;;;;5187014;22;20015;-62
2022/02/25 02:06:42;;;;;;;5.85;2.40;;;26.90;72.70;;;;;;5178172;22;20026;-60
2022/02/25 02:09:06;;;;;;;3.28;1.90;;;26.90;72.80;;;;;;5198651;22;20326;-62
2022/02/25 02:11:35;;;;;;;6.20;2.00;;;26.90;72.80;;;;;;5192021;22;20411;-62
2022/02/25 02:13:59;;;;;;;5.68;1.70;;;26.90;72.80;;;;;;5195502;22;20023;-62
2022/02/25 02:16:22;;;;;;;4.80;2.20;;;26.80;72.70;;;;;;5165558;22;20012;-63
2022/02/25 02:18:44;;;;;;;4.97;2.33;;;26.80;73.10;;;;;;5180731;22;20381;-63
2022/02/25 02:21:07;;;;;;;2.95;1.33;;;26.80;73.10;;;;;;5178219;22;20027;-63
2022/02/25 02:23:29;;;;;;;5.53;2.10;;;26.80;73.40;;;;;;5180279;22;20123;-61
2022/02/25 02:25:52;;;;;;;3.72;2.00;;;26.80;73.30;;;;;;5181605;22;20011;-62
2022/02/25 02:28:21;;;;;;;5.72;2.22;;;26.80;73.50;;;;;;5171903;22;20008;-63
2022/02/25 02:30:45;;;;;;;5.72;1.95;;;26.80;73.40;;;;;;5169618;22;20476;-64
2022/02/25 02:33:08;;;;;;;4.07;1.70;;;26.80;73.40;;;;;;5166427;22;20015;-63
2022/02/25 02:35:30;;;;;;;4.85;1.52;;;26.80;74.00;;;;;;5175514;22;20439;-62
2022/02/25 02:37:53;;;;;;;3.97;1.52;;;26.80;74.50;;;;;;5172017;22;20300;-62
2022/02/25 02:40:16;;;;;;;3.40;1.30;;;26.90;74.00;;;;;;5172349;22;20108;-62
2022/02/25 02:42:38;;;;;;;3.95;1.60;;;26.90;74.10;;;;;;5177239;22;20462;-61
2022/02/25 02:45:01;;;;;;;2.80;1.25;;;26.90;74.00;;;;;;5172276;22;20045;-64
2022/02/25 02:47:23;;;;;;;3.72;1.30;;;26.90;74.00;;;;;;5170268;22;20550;-62
2022/02/25 02:49:46;;;;;;;3.78;1.55;;;27.00;74.10;;;;;;5172646;22;20556;-60
2022/02/25 02:52:09;;;;;;;2.33;1.20;;;27.00;74.00;;;;;;5175382;22;20022;-64
2022/02/25 02:54:31;;;;;;;1.65;1.00;;;27.00;74.00;;;;;;5169673;22;20015;-62
2022/02/25 02:56:54;;;;;;;3.70;0.95;;;27.00;74.00;;;;;;5172604;22;20011;-61
2022/02/25 02:59:16;;;;;;;1.70;0.68;;;27.10;74.10;;;;;;5177669;22;20038;-62
2022/02/25 03:01:39;;;;;;;1.90;1.02;;;27.10;74.10;;;;;;5171492;22;20023;-62
2022/02/25 03:04:01;;;;;;;1.35;0.70;;;27.10;74.10;;;;;;5169164;22;20011;-61
2022/02/25 03:06:25;;;;;;;2.40;1.05;;;27.10;74.00;;;;;;5175911;22;20025;-62
2022/02/25 03:08:47;;;;;;;2.90;0.85;;;27.20;73.90;;;;;;5168964;22;20049;-63
2022/02/25 03:11:10;;;;;;;3.20;0.97;;;27.20;73.80;;;;;;5170359;22;20038;-66
2022/02/25 03:13:33;;;;;;;3.47;1.23;;;27.20;73.90;;;;;;5174832;22;20073;-64
2022/02/25 03:15:55;;;;;;;2.83;0.70;;;27.20;73.90;;;;;;5168884;22;20084;-65
2022/02/25 03:18:18;;;;;;;4.68;1.27;;;27.20;73.90;;;;;;5168695;22;20224;-63
2022/02/25 03:20:40;;;;;;;1.33;0.80;;;27.20;73.90;;;;;;5176116;22;20015;-61
2022/02/25 03:23:03;;;;;;;5.43;1.20;;;27.20;73.90;;;;;;5171822;22;20027;-64
2022/02/25 03:25:26;;;;;;;5.50;1.13;;;27.20;73.90;;;;;;5169740;22;20014;-64
2022/02/25 03:27:49;;;;;;;;;;;27.30;74.00;;;;;;5145007;22;20512;-67
2022/02/25 03:30:12;;;;;;;2.35;0.85;;;27.30;74.10;;;;;;5170472;22;19903;-67
2022/02/25 03:32:35;;;;;;;5.20;0.85;;;27.30;74.00;;;;;;5141011;22;20481;-64
2022/02/25 03:34:57;;;;;;;1.10;0.80;;;27.40;73.90;;;;;;5148370;22;20744;-67
2022/02/25 03:37:20;;;;;;;2.33;0.75;;;27.40;73.90;;;;;;5173552;22;20015;-64
2022/02/25 03:39:43;;;;;;;1.83;0.50;;;27.40;73.80;;;;;;5171789;22;20041;-66
2022/02/25 03:42:06;;;;;;;0.77;0.50;;;27.40;73.70;;;;;;5173154;22;20248;-67
2022/02/25 03:44:28;;;;;;;1.63;0.75;;;27.40;73.70;;;;;;5174342;22;20017;-66
2022/02/25 03:46:51;;;;;;;1.33;0.73;;;27.50;73.60;;;;;;5169241;22;20683;-69
2022/02/25 03:49:14;;;;;;;1.73;0.70;;;27.50;73.60;;;;;;5173238;22;20019;-67
2022/02/25 03:51:36;;;;;;;1.40;0.60;;;27.50;73.60;;;;;;5176263;22;20902;-64
2022/02/25 03:53:59;;;;;;;2.85;0.75;;;27.50;73.80;;;;;;5170870;22;20463;-64
2022/02/25 03:56:22;;;;;;;2.28;0.75;;;27.50;73.70;;;;;;5167361;22;20019;-64
2022/02/25 03:58:44;;;;;;;3.60;0.82;;;27.50;73.60;;;;;;5177087;22;20008;-62
2022/02/25 04:01:07;;;;;;;1.00;0.68;;;27.60;73.70;;;;;;5168961;22;20556;-63
2022/02/25 04:03:29;;;;;;;1.63;0.68;;;27.70;73.70;;;;;;5167204;22;20529;-64
2022/02/25 04:05:52;;;;;;;1.13;0.73;;;27.70;73.70;;;;;;5175646;22;20031;-62
2022/02/25 04:08:14;;;;;;;5.13;0.68;;;27.70;73.70;;;;;;5170258;22;20015;-65
2022/02/25 04:10:37;;;;;;;1.92;0.80;;;27.70;73.60;;;;;;5173522;22;20019;-64
2022/02/25 04:12:59;;;;;;;1.88;0.75;;;27.70;73.70;;;;;;5179737;22;20515;-63
2022/02/25 04:15:22;;;;;;;1.90;0.98;;;27.70;73.60;;;;;;5174782;22;20106;-62
2022/02/25 04:17:45;;;;;;;2.47;0.60;;;27.70;73.60;;;;;;5174688;22;20626;-61
2022/02/25 04:20:07;;;;;;;0.82;0.75;;;27.80;73.60;;;;;;5179963;22;20015;-63
2022/02/25 04:22:30;;;;;;;2.70;1.00;;;27.80;73.60;;;;;;5175956;22;20096;-61
2022/02/25 04:24:52;;;;;;;1.92;0.90;;;27.80;73.60;;;;;;5172785;22;20290;-63
2022/02/25 04:27:16;;;;;;;2.17;0.80;;;27.80;73.50;;;;;;5179076;22;20007;-62
2022/02/25 04:29:41;;;;;;;;;;;27.80;73.60;;;;;;5180419;22;20847;-62
2022/02/25 04:32:03;;;;;;;4.22;0.90;;;27.80;73.60;;;;;;5169664;22;20049;-64
2022/02/25 04:34:26;;;;;;;1.73;0.93;;;27.80;73.40;;;;;;5187847;22;20236;-65
2022/02/25 04:36:49;;;;;;;1.63;1.02;;;27.80;73.30;;;;;;5148534;22;20122;-65
2022/02/25 04:39:12;;;;;;;2.33;0.90;;;27.80;73.30;;;;;;5179324;22;20123;-66
2022/02/25 04:41:34;;;;;;;1.07;0.77;;;27.80;73.10;;;;;;5183927;22;20023;-68
2022/02/25 04:43:57;;;;;;;1.35;1.08;;;27.70;73.00;;;;;;5184425;22;20704;-66
2022/02/25 04:46:21;;;;;;;2.40;0.95;;;27.70;72.90;;;;;;5178446;22;20015;-70
2022/02/25 04:48:44;;;;;;;3.33;1.55;;;27.70;72.90;;;;;;5187282;22;20019;-73
2022/02/25 04:51:07;;;;;;;4.57;1.80;;;27.70;72.80;;;;;;5181298;22;20008;-81
2022/02/25 04:53:30;;;;;;;3.92;2.60;;;27.70;73.10;;;;;;5147705;22;20054;-76
2022/02/25 04:55:52;;;;;;;5.20;2.42;;;27.70;73.50;;;;;;5182956;22;20089;-72
2022/02/25 04:58:15;;;;;;;4.95;3.25;;;27.70;73.50;;;;;;5150680;22;20517;-80
2022/02/25 05:00:38;;;;;;;4.93;2.85;;;27.70;73.20;;;;;;5171067;22;20387;-73
2022/02/25 05:03:00;;;;;;;5.07;2.95;;;27.70;73.40;;;;;;5177842;22;20018;-67
2022/02/25 05:05:23;;;;;;;9.35;3.30;;;27.60;73.60;;;;;;5185485;22;20022;-65
2022/02/25 05:07:46;;;;;;;9.40;2.75;;;27.60;73.60;;;;;;5148064;22;20016;-61
2022/02/25 05:10:10;;;;;;;4.57;2.88;;;27.60;73.00;;;;;;5148053;22;20142;-62
2022/02/25 05:12:32;;;;;;;5.68;2.72;;;27.60;73.00;;;;;;5185070;22;20110;-61
2022/02/25 05:20:23;;;;;;;6.35;2.70;;;27.60;72.80;;;;;;5177643;22;20022;-60
2022/02/25 05:22:46;;;;;;;5.40;2.70;;;27.50;72.60;;;;;;5183135;22;20908;-68
2022/02/25 05:25:09;;;;;;;5.55;2.30;;;27.50;72.70;;;;;;5188999;22;20328;-73
2022/02/25 05:27:31;;;;;;;8.90;3.65;;;27.50;73.20;;;;;;5182694;22;20041;-63
2022/02/25 05:29:54;;;;;;;5.10;2.85;;;27.50;73.90;;;;;;5181609;22;20793;-66
2022/02/25 05:32:17;;;;;;;4.90;2.70;;;27.50;73.50;;;;;;5187197;22;20058;-68
2022/02/25 05:34:39;;;;;;;4.25;2.30;;;27.50;73.20;;;;;;5148053;22;20738;-64
2022/02/25 05:37:02;;;;;;;5.00;2.60;;;27.50;73.90;;;;;;5180711;22;20023;-66
2022/02/25 05:39:24;;;;;;;6.95;2.88;;;27.50;73.60;;;;;;5186454;22;20019;-59
2022/02/25 05:41:47;;;;;;;4.78;1.80;;;27.50;73.90;;;;;;5181623;22;20023;-65
2022/02/25 05:44:09;;;;;;;4.80;2.13;;;27.50;74.20;;;;;;5184584;22;20076;-62
2022/02/25 05:46:31;;;;;;;3.72;2.10;;;27.50;74.30;;;;;;5187351;22;21009;-62
2022/02/25 05:48:54;;;;;;;5.70;2.35;;;27.50;75.00;;;;;;5187205;22;20011;-63
2022/02/25 05:51:17;;;;;;;4.05;2.25;;;27.50;74.80;;;;;;5181801;22;20081;-61
2022/02/25 05:53:39;;;;;;;4.00;1.85;;;27.50;75.80;;;;;;5186442;22;20467;-62
2022/02/25 05:56:01;;;;;;;3.75;1.95;;;27.30;70.40;;;;;;5189323;22;20019;-61
2022/02/25 05:58:24;;;;;;;3.75;1.67;;;27.10;67.20;;;;;;5184221;22;20011;-63
2022/02/25 06:00:47;;;;;;;3.28;1.83;;;26.80;65.60;;;;;;5188360;22;20098;-61
2022/02/25 06:03:09;;;;;;;4.03;1.58;;;26.50;64.80;;;;;;5158277;22;20019;-65
2022/02/25 06:05:32;;;;;;;10.77;1.83;;;26.30;63.30;;;;;;5186292;22;20019;-67
2022/02/25 06:07:54;;;;;;;5.13;1.67;;;26.00;66.00;;;;;;5155083;22;20026;-67
2022/02/25 06:10:17;;;;;;;4.80;1.40;;;26.00;68.00;;;;;;5196750;22;20421;-68
2022/02/25 06:12:40;;;;;;;1.85;1.00;;;26.00;69.10;;;;;;5191769;22;20400;-67
2022/02/25 06:15:03;;;;;;;3.70;1.30;;;26.00;69.50;;;;;;5197533;22;20011;-67
2022/02/25 06:17:26;;;;;;;1.83;1.20;;;26.10;69.70;;;;;;5197963;22;20018;-67
2022/02/25 06:19:49;;;;;;;2.03;1.40;;;26.10;70.00;;;;;;5186113;22;20011;-66
2022/02/25 06:22:11;;;;;;;2.08;1.50;;;26.20;70.10;;;;;;5175296;22;20050;-66
2022/02/25 06:24:33;;;;;;;2.25;1.23;;;26.20;69.90;;;;;;5175120;22;20516;-66
2022/02/25 06:26:56;;;;;;;2.28;1.13;;;26.20;69.80;;;;;;5176732;22;20015;-67
2022/02/25 06:29:18;;;;;;;1.00;0.90;;;26.30;70.00;;;;;;5168824;22;20805;-66
2022/02/25 06:31:42;;;;;;;2.70;1.40;;;26.30;70.10;;;;;;5168241;22;20144;-68
2022/02/25 06:34:04;;;;;;;1.88;0.90;;;26.30;70.10;;;;;;5172703;22;20019;-66
2022/02/25 06:36:27;;;;;;;1.43;0.90;;;26.30;70.10;;;;;;5166930;22;20022;-66
2022/02/25 06:38:49;;;;;;;1.58;0.90;;;26.30;70.20;;;;;;5176202;22;20035;-66
2022/02/25 06:41:12;;;;;;;0.65;0.63;;;26.30;70.20;;;;;;5172983;22;20026;-66
2022/02/25 06:43:35;;;;;;;1.83;0.90;;;26.40;70.20;;;;;;5168695;22;20347;-65
2022/02/25 06:45:57;;;;;;;2.75;0.90;;;26.40;70.30;;;;;;5170095;22;20445;-66
2022/02/25 06:48:20;;;;;;;2.00;1.00;;;26.40;70.20;;;;;;5174942;22;20045;-67
2022/02/25 06:50:43;;;;;;;2.33;0.95;;;26.40;70.60;;;;;;5171056;22;20086;-66
2022/02/25 06:53:05;;;;;;;2.70;0.77;;;26.40;70.80;;;;;;5171442;22;20026;-66
2022/02/25 06:55:28;;;;;;;2.25;0.93;;;26.40;70.80;;;;;;5177124;22;20023;-66
2022/02/25 06:57:51;;;;;;;1.23;0.77;;;26.40;70.90;;;;;;5168198;22;20521;-66
2022/02/25 07:00:21;;;;;;;2.40;0.90;;;26.40;71.00;;;;;;5170849;22;20011;-67
2022/02/25 07:02:44;;;;;;;1.92;0.88;;;26.40;71.20;;;;;;5139016;22;20038;-68
2022/02/25 07:05:08;;;;;;;3.38;0.90;;;26.40;71.30;;;;;;5169475;22;20537;-68
2022/02/25 07:07:30;;;;;;;3.22;1.40;;;26.40;71.50;;;;;;5174024;22;20064;-68
2022/02/25 07:09:53;;;;;;;3.88;1.40;;;26.40;71.60;;;;;;5170870;22;20553;-68
2022/02/25 07:12:15;;;;;;;2.42;1.40;;;26.40;71.60;;;;;;5171667;22;20098;-67
2022/02/25 07:14:38;;;;;;;3.67;1.42;;;26.40;72.40;;;;;;5177436;22;20297;-67
2022/02/25 07:17:02;;;;;;;5.70;2.28;;;26.50;72.00;;;;;;5175883;22;20133;-67
2022/02/25 07:19:25;;;;;;;3.95;1.52;;;26.50;72.00;;;;;;5171206;22;20015;-68
2022/02/25 07:21:47;;;;;;;2.65;1.23;;;26.40;72.10;;;;;;5175388;22;20019;-68
2022/02/25 07:24:10;;;;;;;3.80;1.50;;;26.50;72.20;;;;;;5172911;22;20046;-68
2022/02/25 07:26:34;;;;;;;1.73;1.00;;;26.50;72.20;;;;;;5138047;22;20015;-68
2022/02/25 07:28:56;;;;;;;;;;;26.50;72.30;;;;;;5174069;22;20043;-68
2022/02/25 07:31:18;;;;;;;3.67;1.50;;;26.50;72.30;;;;;;5172775;22;19907;-68
2022/02/25 07:33:41;;;;;;;2.42;1.20;;;26.50;72.40;;;;;;5170645;22;20088;-68
2022/02/25 07:36:04;;;;;;;3.40;1.23;;;26.50;72.50;;;;;;5144984;22;20062;-68
2022/02/25 07:38:27;;;;;;;2.33;1.13;;;26.50;72.50;;;;;;5177053;22;20015;-67
2022/02/25 07:40:50;;;;;;;1.50;1.08;;;26.50;72.60;;;;;;5173200;22;20022;-67
2022/02/25 07:43:18;;;;;;;3.00;0.98;;;26.50;72.60;;;;;;5172049;22;20310;-67
2022/02/25 07:45:41;;;;;;;2.00;1.02;;;26.50;72.70;;;;;;5173384;22;20403;-68
2022/02/25 07:48:03;;;;;;;2.78;1.10;;;26.50;72.70;;;;;;5174078;22;20031;-67
2022/02/25 07:50:26;;;;;;;3.10;1.10;;;26.50;72.80;;;;;;5178943;22;20086;-67
2022/02/25 07:52:48;;;;;;;2.13;1.20;;;26.50;72.90;;;;;;5170262;22;20026;-68
2022/02/25 07:55:12;;;;;;;1.92;0.95;;;26.50;72.90;;;;;;5178815;22;20522;-67
2022/02/25 07:57:35;;;;;;;1.63;0.98;;;26.50;72.90;;;;;;5185149;22;20011;-66
2022/02/25 07:59:58;;;;;;;1.52;0.95;;;26.50;72.90;;;;;;5180367;22;20015;-66
2022/02/25 08:02:21;;;;;;;1.38;0.95;;;26.50;72.90;;;;;;5174947;22;20023;-67
2022/02/25 08:04:43;;;;;;;2.15;1.02;;;26.50;73.00;;;;;;5179208;22;20007;-67
2022/02/25 08:07:06;;;;;;;3.00;0.97;;;26.50;73.00;;;;;;5146973;22;20025;-66
2022/02/25 08:09:29;;;;;;;1.47;0.90;;;26.50;73.10;;;;;;5173336;22;20463;-67
2022/02/25 08:11:52;;;;;;;2.40;1.02;;;26.50;73.10;;;;;;5178709;22;20011;-67
2022/02/25 08:14:15;;;;;;;3.25;0.98;;;26.50;73.20;;;;;;5178560;22;20030;-67
2022/02/25 08:16:38;;;;;;;1.83;0.83;;;26.50;73.20;;;;;;5175799;22;20019;-68
2022/02/25 08:19:01;;;;;;;2.30;0.90;;;26.50;73.20;;;;;;5179454;22;20098;-68
2022/02/25 08:21:23;;;;;;;1.65;0.90;;;26.50;73.30;;;;;;5187719;22;20027;-68
2022/02/25 08:23:46;;;;;;;2.88;0.80;;;26.50;73.30;;;;;;5179616;22;20015;-67
2022/02/25 08:26:08;;;;;;;1.55;0.73;;;26.50;73.30;;;;;;5181774;22;20015;-67
2022/02/25 08:28:32;;;;;;;1.15;0.70;;;26.50;73.40;;;;;;5187303;22;20541;-67
2022/02/25 08:30:55;;;;;;;2.03;0.93;;;26.50;73.40;;;;;;5182520;22;20011;-68
2022/02/25 08:33:17;;;;;;;1.55;0.85;;;26.50;74.10;;;;;;5180017;22;20007;-68
2022/02/25 08:35:40;;;;;;;2.80;0.98;;;26.50;73.50;;;;;;5186867;22;20011;-67
2022/02/25 08:38:04;;;;;;;2.43;0.93;;;26.50;73.50;;;;;;5181822;22;20538;-68
2022/02/25 08:40:27;;;;;;;2.60;0.93;;;26.50;73.50;;;;;;5182367;22;20007;-68
2022/02/25 08:42:50;;;;;;;2.20;0.85;;;26.50;73.60;;;;;;5187059;22;20023;-67
2022/02/25 08:45:14;;;;;;;1.17;0.80;;;26.50;73.60;;;;;;5183023;22;20019;-67
2022/02/25 08:47:36;;;;;;;1.83;0.85;;;26.50;73.60;;;;;;5179581;22;20046;-67
2022/02/25 08:49:59;;;;;;;2.05;1.08;;;26.50;73.70;;;;;;5177660;22;20379;-67
2022/02/25 08:52:21;;;;;;;3.22;1.20;;;26.50;73.70;;;;;;5173203;22;20053;-67
2022/02/25 08:54:44;;;;;;;2.30;1.10;;;26.50;73.70;;;;;;5172863;22;20523;-67
2022/02/25 08:57:07;;;;;;;1.77;0.82;;;26.50;73.70;;;;;;5182627;22;20011;-67
2022/02/25 08:59:29;;;;;;;1.88;1.00;;;26.50;73.80;;;;;;5142280;22;20012;-67
2022/02/25 09:01:52;;;;;;;3.22;1.10;;;26.50;73.80;;;;;;5171226;22;20023;-67
2022/02/25 09:04:14;;;;;;;2.60;1.20;;;26.50;73.80;;;;;;5181671;22;20007;-66
2022/02/25 09:06:39;;;;;;;1.98;0.80;;;26.50;73.80;;;;;;5177990;22;20019;-66
2022/02/25 09:09:03;;;;;;;1.80;0.95;;;26.50;73.90;;;;;;5175520;22;20015;-66
2022/02/25 09:11:26;;;;;;;2.22;1.00;;;26.50;74.00;;;;;;5149368;22;20020;-66
2022/02/25 09:13:49;;;;;;;2.15;1.02;;;26.50;73.90;;;;;;5177666;22;20054;-66
2022/02/25 09:16:11;;;;;;;1.98;0.95;;;26.50;73.90;;;;;;5178419;22;20018;-67
2022/02/25 09:18:34;;;;;;;1.85;0.75;;;26.50;73.90;;;;;;5186363;22;20011;-66
2022/02/25 09:20:57;;;;;;;3.45;1.10;;;26.50;74.00;;;;;;5178236;22;20030;-66
2022/02/25 09:23:19;;;;;;;2.75;1.20;;;26.50;74.00;;;;;;5179914;22;20050;-66
2022/02/25 09:25:42;;;;;;;3.90;1.30;;;26.50;74.00;;;;;;5186926;22;20011;-66
2022/02/25 09:28:05;;;;;;;2.35;0.75;;;26.50;74.00;;;;;;5176786;22;20026;-66
2022/02/25 09:30:28;;;;;;;2.58;0.90;;;26.50;74.00;;;;;;5177432;22;20019;-66
2022/02/25 09:32:50;;;;;;;1.50;0.90;;;26.50;74.00;;;;;;5182542;22;20022;-66
2022/02/25 09:35:13;;;;;;;3.17;0.90;;;26.50;74.00;;;;;;5180508;22;20015;-67
2022/02/25 09:37:36;;;;;;;1.63;0.88;;;26.50;74.00;;;;;;5173363;22;20030;-65
2022/02/25 09:39:58;;;;;;;1.87;1.00;;;26.50;74.00;;;;;;5184230;22;20549;-66
2022/02/25 09:42:22;;;;;;;1.52;1.00;;;26.50;74.00;;;;;;5178877;22;20440;-66
2022/02/25 09:44:45;;;;;;;2.83;1.15;;;26.40;74.00;;;;;;5178918;22;20015;-65
2022/02/25 09:47:08;;;;;;;2.58;1.17;;;26.40;73.90;;;;;;5180844;22;20015;-67
2022/02/25 09:49:31;;;;;;;2.00;0.90;;;26.40;73.90;;;;;;5180766;22;20019;-66
2022/02/25 09:51:56;;;;;;;1.80;0.82;;;26.40;74.00;;;;;;5179248;22;20382;-66
2022/02/25 09:54:19;;;;;;;1.75;0.80;;;26.40;74.00;;;;;;5185410;22;20147;-65
2022/02/25 09:56:42;;;;;;;2.30;1.02;;;26.40;74.00;;;;;;5180165;22;20019;-66
2022/02/25 09:59:05;;;;;;;1.55;0.90;;;26.40;74.00;;;;;;5178661;22;20019;-66
2022/02/25 10:01:34;;;;;;;2.50;1.30;;;26.40;74.00;;;;;;5185020;22;20019;-66
2022/02/25 10:03:57;;;;;;;2.95;1.10;;;26.40;74.00;;;;;;5186900;22;20023;-66
2022/02/25 10:06:20;;;;;;;2.63;1.00;;;26.40;74.00;;;;;;5187531;22;20073;-66
2022/02/25 10:08:43;;;;;;;3.40;1.20;;;26.40;74.00;;;;;;5189666;22;20022;-66
2022/02/25 10:11:06;;;;;;;2.65;0.90;;;26.40;74.00;;;;;;5182755;22;20075;-66
2022/02/25 10:13:31;;;;;;;2.75;1.27;;;26.40;74.00;;;;;;5183669;22;20019;-65
2022/02/25 10:16:48;;;;;;;1.98;0.82;;;26.40;74.00;;;;;;5205653;22;20011;-66
2022/02/25 10:19:12;;;;;;;2.00;0.95;;;26.40;74.00;;;;;;5189516;22;20017;-67
2022/02/25 10:25:11;;;;;;;2.10;1.00;;;26.40;74.00;;;;;;5185707;22;20464;-66
2022/02/25 10:27:42;;;;;;;1.92;1.05;;;26.40;74.00;;;;;;5188490;22;20007;-67
2022/02/25 10:30:08;;;;;;;3.40;1.48;;;26.40;74.10;;;;;;5189855;22;20053;-66
2022/02/25 10:32:36;;;;;;;3.10;0.85;;;26.40;74.00;;;;;;5181244;22;20011;-67
2022/02/25 10:35:00;;;;;;;3.10;1.02;;;26.40;74.10;;;;;;5188353;22;20007;-67
2022/02/25 10:37:23;;;;;;;1.90;1.05;;;26.40;74.10;;;;;;5189126;22;20023;-66
2022/02/25 10:39:46;;;;;;;2.72;0.80;;;26.40;74.00;;;;;;5182603;22;20011;-66
2022/02/25 10:42:19;;;;;;;1.30;0.80;;;26.40;74.10;;;;;;5183116;22;20266;-66
2022/02/25 10:44:49;;;;;;;1.95;0.85;;;26.40;74.10;;;;;;5180197;22;20015;-66
2022/02/25 10:47:28;;;;;;;2.03;0.88;;;26.40;74.10;;;;;;5176542;22;20023;-67
2022/02/25 10:50:08;;;;;;;3.25;1.08;;;26.40;74.00;;;;;;5181239;22;20099;-65
2022/02/25 10:52:40;;;;;;;2.17;1.00;;;26.40;74.10;;;;;;5180321;22;20015;-67
2022/02/25 10:55:06;;;;;;;1.90;0.90;;;26.40;74.10;;;;;;5185095;22;20026;-66
2022/02/25 10:57:30;;;;;;;2.22;0.95;;;26.40;74.10;;;;;;5178742;22;20022;-67
2022/02/25 10:59:52;;;;;;;2.13;1.10;;;26.40;74.10;;;;;;5183967;22;20499;-66
2022/02/25 11:02:30;;;;;;;1.50;0.70;;;26.40;74.10;;;;;;5176489;22;20625;-68
2022/02/25 11:05:08;;;;;;;3.33;1.02;;;26.30;74.00;;;;;;5180714;22;20359;-66
2022/02/25 11:07:31;;;;;;;1.10;0.60;;;26.40;74.10;;;;;;5179496;22;20023;-66
2022/02/25 11:09:54;;;;;;;2.30;0.93;;;26.30;74.10;;;;;;5180608;22;20015;-67
2022/02/25 11:12:18;;;;;;;2.03;0.82;;;26.30;74.00;;;;;;5180244;22;20023;-66
2022/02/25 11:14:42;;;;;;;2.00;0.85;;;26.30;74.10;;;;;;5183813;22;20866;-67
2022/02/25 11:17:04;;;;;;;2.67;1.05;;;26.30;74.10;;;;;;5184098;22;20015;-67
2022/02/25 11:19:28;;;;;;;2.75;0.98;;;26.30;74.10;;;;;;5182214;22;20115;-67
2022/02/25 11:21:52;;;;;;;2.75;0.90;;;26.30;74.10;;;;;;5185511;22;20019;-67
2022/02/25 11:24:15;;;;;;;2.25;1.00;;;26.30;74.10;;;;;;5183903;22;20026;-67
2022/02/25 11:26:37;;;;;;;1.38;0.95;;;26.30;74.10;;;;;;5178887;22;20026;-67
2022/02/25 11:29:05;;;;;;;1.88;1.08;;;26.30;74.10;;;;;;5185609;22;20018;-67
2022/02/25 11:31:32;;;;;;;2.45;0.95;;;26.40;74.20;;;;;;5183706;22;20023;-67
2022/02/25 11:33:56;;;;;;;2.42;0.80;;;26.30;74.10;;;;;;5183847;22;20907;-67
2022/02/25 11:36:19;;;;;;;2.88;1.05;;;26.30;74.10;;;;;;5186838;22;20019;-67
2022/02/25 11:38:44;;;;;;;;;;;26.30;74.10;;;;;;5151425;22;20015;-66
2022/02/25 11:41:20;;;;;;;4.47;1.20;;;26.30;74.10;;;;;;5185446;22;19960;-66
2022/02/25 11:43:45;;;;;;;2.30;1.48;;;26.30;74.10;;;;;;5180503;22;20098;-66
2022/02/25 11:46:23;;;;;;;2.58;1.10;;;26.30;74.10;;;;;;5187437;22;20012;-66
2022/02/25 11:48:48;;;;;;;3.17;1.20;;;26.30;74.10;;;;;;5169967;22;20844;-66
2022/02/25 11:51:32;;;;;;;1.25;0.82;;;26.30;74.10;;;;;;5184903;22;20015;-67
2022/02/25 11:54:30;;;;;;;1.20;0.85;;;26.30;74.10;;;;;;5185843;22;20014;-66
2022/02/25 11:56:59;;;;;;;2.42;1.00;;;26.30;74.10;;;;;;5179259;22;20094;-67
2022/02/25 11:59:22;;;;;;;2.25;0.90;;;26.30;74.10;;;;;;5183012;22;20015;-67
2022/02/25 12:02:12;;;;;;;2.70;1.27;;;26.30;74.20;;;;;;5177927;22;20019;-66
2022/02/25 12:04:39;;;;;;;1.98;0.95;;;26.30;74.10;;;;;;5177198;22;20293;-66
2022/02/25 12:07:05;;;;;;;2.30;1.00;;;26.30;74.20;;;;;;5185743;22;20525;-66
2022/02/25 12:09:50;;;;;;;2.00;1.02;;;26.30;74.20;;;;;;5180231;22;20027;-65
2022/02/25 12:12:24;;;;;;;3.85;1.10;;;26.30;74.40;;;;;;5183474;22;20091;-66
2022/02/25 12:14:58;;;;;;;;;;;26.30;74.10;;;;;;5187564;22;20034;-66
2022/02/25 12:17:51;;;;;;;3.13;0.93;;;26.30;74.10;;;;;;5179412;22;19920;-66
2022/02/25 12:20:36;;;;;;;2.47;0.98;;;26.30;74.10;;;;;;5185437;22;20038;-66
2022/02/25 12:23:03;;;;;;;2.22;0.90;;;26.20;74.10;;;;;;5182816;22;20847;-65
2022/02/25 12:25:40;;;;;;;2.35;1.10;;;26.20;74.10;;;;;;5181224;22;20016;-67
2022/02/25 12:28:12;;;;;;;1.85;1.02;;;26.30;74.20;;;;;;5186631;22;20015;-67
2022/02/25 12:30:46;;;;;;;3.20;1.40;;;26.20;74.20;;;;;;5177091;22;20047;-65
2022/02/25 12:33:26;;;;;;;;;;;26.20;74.10;;;;;;5178316;22;20011;-66
2022/02/25 12:35:49;;;;;;;1.95;0.95;;;26.20;74.10;;;;;;5186181;22;19913;-66
2022/02/25 12:38:17;;;;;;;1.90;0.90;;;26.20;74.50;;;;;;5180782;22;20512;-67
2022/02/25 12:40:39;;;;;;;2.25;1.10;;;26.20;74.20;;;;;;5188177;22;20616;-66